createdAt,value
2022-12-08T00:01:11.798Z,8.13
2022-12-08T00:03:38.864Z,6.57
2022-12-08T00:06:26.642Z,6.40
2022-12-08T00:09:11.910Z,6.07
2022-12-08T00:11:39.974Z,6.00
2022-12-08T00:14:06.694Z,5.57
2022-12-08T00:16:33.631Z,5.43
2022-12-08T00:19:00.390Z,6.23
2022-12-08T00:21:28.299Z,6.57
2022-12-08T00:23:56.118Z,6.03
2022-12-08T00:26:23.526Z,6.17
2022-12-08T00:28:50.375Z,6.70
2022-12-08T00:31:17.263Z,6.60
2022-12-08T00:33:44.092Z,6.67
2022-12-08T00:36:13.733Z,7.10
2022-12-08T00:38:41.381Z,6.33
2022-12-08T00:41:14.336Z,6.67
2022-12-08T00:43:41.358Z,7.37
2022-12-08T00:46:08.329Z,6.87
2022-12-08T00:48:35.394Z,6.53
2022-12-08T00:51:02.490Z,7.17
2022-12-08T00:53:30.882Z,7.00
2022-12-08T00:55:57.622Z,6.30
2022-12-08T00:58:24.554Z,6.50
2022-12-08T01:00:51.348Z,6.60
2022-12-08T01:03:18.169Z,6.97
2022-12-08T01:05:45.061Z,6.33
2022-12-08T01:08:11.892Z,6.83
2022-12-08T01:10:39.646Z,6.60
2022-12-08T01:13:06.668Z,5.73
2022-12-08T01:15:33.414Z,6.00
2022-12-08T01:18:00.118Z,6.07
2022-12-08T01:20:26.862Z,6.00
2022-12-08T01:22:53.576Z,6.27
2022-12-08T01:25:20.261Z,5.97
2022-12-08T01:27:47.061Z,5.90
2022-12-08T01:30:14.228Z,5.27
2022-12-08T01:32:40.939Z,6.63
2022-12-08T01:35:08.032Z,5.47
2022-12-08T01:37:34.922Z,5.77
2022-12-08T01:40:02.023Z,5.80
2022-12-08T01:42:30.715Z,5.73
2022-12-08T01:45:01.174Z,5.73
2022-12-08T01:47:35.123Z,5.27
2022-12-08T01:50:03.470Z,4.77
2022-12-08T01:52:41.813Z,5.20
2022-12-08T01:55:22.641Z,4.87
2022-12-08T01:57:56.461Z,4.83
2022-12-08T02:00:23.944Z,4.47
2022-12-08T02:03:04.038Z,4.53
2022-12-08T02:05:37.010Z,4.20
2022-12-08T02:08:09.782Z,4.57
2022-12-08T02:10:39.321Z,5.27
2022-12-08T02:13:09.442Z,5.87
2022-12-08T02:15:42.913Z,5.30
2022-12-08T02:18:37.515Z,5.60
2022-12-08T02:21:06.913Z,5.60
2022-12-08T02:23:45.608Z,5.97
2022-12-08T02:26:37.318Z,6.13
2022-12-08T02:29:53.446Z,6.73
2022-12-08T02:32:44.015Z,6.40
2022-12-08T02:35:27.548Z,6.83
2022-12-08T02:38:12.649Z,6.93
2022-12-08T02:41:04.882Z,7.73
2022-12-08T02:43:42.937Z,7.37
2022-12-08T02:46:13.375Z,7.57
2022-12-08T02:48:41.447Z,8.10
2022-12-08T02:51:08.158Z,7.60
2022-12-08T02:53:36.222Z,7.37
2022-12-08T02:56:14.738Z,7.10
2022-12-08T02:59:04.455Z,6.93
2022-12-08T03:01:34.108Z,6.60
2022-12-08T03:04:16.715Z,5.50
2022-12-08T03:06:58.679Z,5.70
2022-12-08T03:09:35.136Z,5.83
2022-12-08T03:12:17.171Z,4.10
2022-12-08T03:14:48.110Z,4.70
2022-12-08T03:17:17.236Z,5.57
2022-12-08T03:19:46.051Z,3.90
2022-12-08T03:22:14.989Z,3.83
2022-12-08T03:24:45.288Z,3.37
2022-12-08T03:27:20.002Z,2.70
2022-12-08T03:29:48.456Z,2.93
2022-12-08T03:32:49.042Z,3.13
2022-12-08T03:35:20.098Z,2.40
2022-12-08T03:37:47.085Z,2.60
2022-12-08T03:40:17.490Z,2.70
2022-12-08T03:42:44.216Z,2.30
2022-12-08T03:45:11.181Z,2.40
2022-12-08T03:47:38.273Z,2.00
2022-12-08T03:50:06.135Z,1.60
2022-12-08T03:52:33.082Z,1.70
2022-12-08T03:54:59.757Z,1.60
2022-12-08T03:57:26.531Z,1.37
2022-12-08T03:59:53.253Z,1.20
2022-12-08T04:02:20.068Z,1.40
2022-12-08T04:04:46.852Z,1.70
2022-12-08T04:07:13.544Z,1.43
2022-12-08T04:09:41.604Z,1.80
2022-12-08T04:12:09.773Z,1.70
2022-12-08T04:14:36.516Z,1.50
2022-12-08T04:17:03.354Z,1.50
2022-12-08T04:19:30.093Z,1.30
2022-12-08T04:21:56.981Z,1.50
2022-12-08T04:24:23.674Z,1.50
2022-12-08T04:26:50.639Z,1.60
2022-12-08T04:29:17.560Z,1.60
2022-12-08T04:31:44.546Z,1.80
2022-12-08T04:34:11.334Z,1.57
2022-12-08T04:36:38.014Z,1.97
2022-12-08T04:39:04.736Z,1.97
2022-12-08T04:41:31.471Z,2.10
2022-12-08T04:43:58.182Z,2.10
2022-12-08T04:46:25.004Z,2.53
2022-12-08T04:48:51.814Z,2.70
2022-12-08T04:51:20.625Z,3.13
2022-12-08T04:53:47.758Z,3.30
2022-12-08T04:56:19.430Z,3.90
2022-12-08T04:58:46.871Z,3.80
2022-12-08T05:01:14.567Z,3.90
2022-12-08T05:03:41.494Z,3.73
2022-12-08T05:06:12.443Z,2.83
2022-12-08T05:08:39.164Z,3.43
2022-12-08T05:11:08.516Z,3.27
2022-12-08T05:13:35.267Z,3.00
2022-12-08T05:16:10.730Z,3.00
2022-12-08T05:18:38.735Z,3.00
2022-12-08T05:21:06.302Z,2.37
2022-12-08T05:23:33.598Z,2.13
2022-12-08T05:26:00.465Z,1.60
2022-12-08T05:28:43.792Z,1.83
2022-12-08T05:31:16.298Z,2.00
2022-12-08T05:33:44.243Z,1.63
2022-12-08T05:36:14.199Z,1.40
2022-12-08T05:38:41.287Z,1.30
2022-12-08T05:41:09.083Z,1.23
2022-12-08T05:43:36.091Z,1.50
2022-12-08T05:46:03.053Z,1.40
2022-12-08T05:48:29.806Z,1.30
2022-12-08T05:50:56.847Z,1.43
2022-12-08T05:53:23.691Z,1.10
2022-12-08T05:55:50.401Z,1.23
2022-12-08T05:58:19.525Z,0.90
2022-12-08T06:00:47.560Z,1.40
2022-12-08T06:03:16.046Z,1.63
2022-12-08T06:05:44.600Z,1.40
2022-12-08T06:08:12.345Z,1.67
2022-12-08T06:10:40.791Z,1.67
2022-12-08T06:13:07.856Z,1.80
2022-12-08T06:15:36.065Z,1.50
2022-12-08T06:18:03.206Z,1.70
2022-12-08T06:20:29.975Z,1.93
2022-12-08T06:22:57.306Z,1.87
2022-12-08T06:25:24.965Z,1.50
2022-12-08T06:27:52.243Z,1.60
2022-12-08T06:30:19.215Z,1.53
2022-12-08T06:32:45.957Z,1.40
2022-12-08T06:35:12.811Z,1.37
2022-12-08T06:37:39.599Z,1.20
2022-12-08T06:40:07.311Z,1.63
2022-12-08T06:42:47.186Z,1.10
2022-12-08T06:45:16.237Z,1.50
2022-12-08T06:47:43.287Z,1.30
2022-12-08T06:50:11.116Z,1.63
2022-12-08T06:52:47.228Z,1.50
2022-12-08T06:55:42.539Z,1.60
2022-12-08T06:58:06.667Z,2.00
2022-12-08T07:00:33.359Z,1.67
2022-12-08T07:03:00.139Z,1.63
2022-12-08T07:05:26.916Z,1.90
2022-12-08T07:07:53.686Z,2.10
2022-12-08T07:10:20.469Z,2.43
2022-12-08T07:12:47.255Z,2.50
2022-12-08T07:15:14.165Z,2.60
2022-12-08T07:17:40.918Z,3.10
2022-12-08T07:20:08.234Z,3.23
2022-12-08T07:22:34.958Z,3.57
2022-12-08T07:25:01.707Z,3.17
2022-12-08T07:27:28.779Z,3.00
2022-12-08T07:29:55.476Z,2.70
2022-12-08T07:32:22.261Z,3.33
2022-12-08T07:34:48.966Z,2.87
2022-12-08T07:37:15.710Z,2.63
2022-12-08T07:39:43.039Z,2.13
2022-12-08T07:42:09.731Z,2.80
2022-12-08T07:44:37.512Z,3.87
2022-12-08T07:47:04.328Z,3.00
2022-12-08T07:49:31.005Z,2.80
2022-12-08T07:51:57.678Z,2.67
2022-12-08T07:54:24.378Z,2.93
2022-12-08T07:56:51.105Z,2.27
2022-12-08T07:59:17.826Z,2.43
2022-12-08T08:01:45.635Z,2.27
2022-12-08T08:04:12.632Z,1.93
2022-12-08T08:06:39.429Z,1.60
2022-12-08T08:09:06.440Z,2.00
2022-12-08T08:11:33.265Z,1.70
2022-12-08T08:14:00.082Z,1.60
2022-12-08T08:16:27.281Z,1.40
2022-12-08T08:18:54.728Z,1.70
2022-12-08T08:21:44.358Z,1.60
2022-12-08T08:24:08.818Z,1.67
2022-12-08T08:26:36.766Z,1.80
2022-12-08T08:29:03.653Z,2.00
2022-12-08T08:31:30.584Z,1.97
2022-12-08T08:33:57.454Z,1.93
2022-12-08T08:36:27.294Z,2.37
2022-12-08T08:38:53.999Z,2.10
2022-12-08T08:41:20.798Z,2.00
2022-12-08T08:43:47.563Z,1.90
2022-12-08T08:46:14.614Z,1.80
2022-12-08T08:48:41.701Z,1.93
2022-12-08T08:51:13.954Z,1.73
2022-12-08T08:53:41.443Z,1.60
2022-12-08T08:56:13.620Z,1.47
2022-12-08T08:58:41.867Z,1.60
2022-12-08T09:01:08.793Z,1.93
2022-12-08T09:03:35.637Z,2.00
2022-12-08T09:06:02.395Z,1.60
2022-12-08T09:08:29.326Z,1.90
2022-12-08T09:10:56.087Z,1.87
2022-12-08T09:13:25.400Z,1.50
2022-12-08T09:15:52.176Z,1.87
2022-12-08T09:18:19.183Z,1.20
2022-12-08T09:20:45.994Z,1.60
2022-12-08T09:23:12.690Z,1.80
2022-12-08T09:25:39.419Z,2.80
2022-12-08T09:28:06.125Z,3.20
2022-12-08T09:30:32.835Z,2.83
2022-12-08T09:32:59.679Z,1.60
2022-12-08T09:35:26.367Z,1.90
2022-12-08T09:37:53.088Z,1.37
2022-12-08T09:40:23.112Z,1.33
2022-12-08T09:42:54.741Z,1.40
2022-12-08T09:45:24.511Z,1.20
2022-12-08T09:48:03.021Z,1.70
2022-12-08T09:50:37.866Z,1.43
2022-12-08T09:53:35.690Z,1.40
2022-12-08T09:56:05.866Z,1.33
2022-12-08T09:58:53.671Z,1.60
2022-12-08T10:01:22.713Z,1.40
2022-12-08T10:03:49.962Z,1.27
2022-12-08T10:06:35.939Z,1.40
2022-12-08T10:09:40.453Z,1.30
2022-12-08T10:12:37.210Z,1.63
2022-12-08T10:15:25.485Z,1.70
2022-12-08T10:17:56.100Z,1.70
2022-12-08T10:20:25.942Z,1.90
2022-12-08T10:23:08.306Z,2.10
2022-12-08T10:26:07.667Z,2.40
2022-12-08T10:28:38.798Z,2.70
2022-12-08T10:31:21.679Z,2.30
2022-12-08T10:33:57.818Z,2.17
2022-12-08T10:36:48.662Z,2.37
2022-12-08T10:39:35.423Z,2.43
2022-12-08T10:42:15.569Z,2.23
2022-12-08T10:45:04.533Z,1.73
2022-12-08T10:47:37.757Z,1.80
2022-12-08T10:50:35.683Z,1.77
2022-12-08T10:53:08.547Z,1.53
2022-12-08T10:55:45.638Z,1.50
2022-12-08T10:59:04.597Z,1.10
2022-12-08T11:01:39.141Z,1.47
2022-12-08T11:04:16.953Z,1.23
2022-12-08T11:06:44.336Z,1.10
2022-12-08T11:09:20.298Z,1.30
2022-12-08T11:12:00.040Z,1.10
2022-12-08T11:14:37.481Z,1.20
2022-12-08T11:17:14.449Z,1.27
2022-12-08T11:19:44.258Z,1.10
2022-12-08T11:22:34.936Z,0.97
2022-12-08T11:25:07.878Z,1.33
2022-12-08T11:27:36.920Z,1.50
2022-12-08T11:30:14.793Z,2.93
2022-12-08T11:32:44.877Z,2.97
2022-12-08T11:35:37.823Z,2.33
2022-12-08T11:38:23.642Z,2.60
2022-12-08T11:41:16.143Z,2.30
2022-12-08T11:44:07.287Z,2.60
2022-12-08T11:47:19.947Z,3.10
2022-12-08T11:49:48.957Z,2.70
2022-12-08T11:52:26.461Z,2.60
2022-12-08T11:54:57.404Z,1.87
2022-12-08T11:57:26.369Z,1.43
2022-12-08T11:59:56.135Z,1.57
2022-12-08T12:02:29.925Z,1.57
2022-12-08T12:05:01.360Z,1.90
2022-12-08T12:07:56.491Z,2.07
2022-12-08T12:10:29.441Z,1.17
2022-12-08T12:13:21.900Z,1.27
2022-12-08T12:16:00.737Z,1.30
2022-12-08T12:18:35.098Z,1.00
2022-12-08T12:21:22.799Z,1.30
2022-12-08T12:23:59.593Z,0.90
2022-12-08T12:26:29.367Z,1.27
2022-12-08T12:29:05.897Z,1.50
2022-12-08T12:31:37.415Z,1.67
2022-12-08T12:34:27.150Z,1.50
2022-12-08T12:37:05.030Z,1.83
2022-12-08T12:39:45.681Z,2.60
2022-12-08T12:42:41.341Z,3.90
2022-12-08T12:45:17.154Z,2.70
2022-12-08T12:47:57.380Z,2.87
2022-12-08T12:50:33.569Z,2.60
2022-12-08T12:53:24.595Z,2.80
2022-12-08T12:56:00.390Z,2.47
2022-12-08T12:58:30.103Z,3.07
2022-12-08T13:01:51.994Z,2.97
2022-12-08T13:04:19.160Z,3.10
2022-12-08T13:06:49.756Z,2.97
2022-12-08T13:09:41.453Z,2.73
2022-12-08T13:12:11.329Z,2.70
2022-12-08T13:14:47.528Z,2.73
2022-12-08T13:17:28.287Z,2.30
2022-12-08T13:19:58.551Z,2.20
2022-12-08T13:23:00.518Z,2.20
2022-12-08T13:26:09.360Z,1.90
2022-12-08T13:29:04.698Z,2.13
2022-12-08T13:31:54.664Z,2.33
2022-12-08T13:34:49.883Z,2.23
2022-12-08T13:37:28.211Z,2.60
2022-12-08T13:40:15.186Z,3.07
2022-12-08T13:42:50.862Z,3.77
2022-12-08T13:45:43.555Z,4.17
2022-12-08T13:48:35.591Z,5.50
2022-12-08T13:57:36.829Z,4.90
2022-12-08T14:00:16.546Z,4.90
2022-12-08T14:02:48.168Z,4.80
2022-12-08T14:05:19.796Z,4.73
2022-12-08T14:07:56.920Z,4.93
2022-12-08T14:10:27.744Z,4.10
2022-12-08T14:13:02.788Z,3.73
2022-12-08T14:15:37.177Z,3.60
2022-12-08T14:18:05.875Z,3.87
2022-12-08T14:20:51.790Z,3.70
2022-12-08T14:23:21.475Z,4.33
2022-12-08T14:25:48.592Z,4.90
2022-12-08T14:28:15.405Z,4.60
2022-12-08T14:30:42.563Z,4.90
2022-12-08T14:33:15.145Z,4.90
2022-12-08T14:35:41.885Z,4.17
2022-12-08T14:38:20.310Z,4.33
2022-12-08T14:41:09.051Z,5.80
2022-12-08T14:43:36.065Z,5.33
2022-12-08T14:46:06.379Z,5.43
2022-12-08T14:48:36.330Z,6.17
2022-12-08T14:51:18.769Z,5.37
2022-12-08T14:53:46.397Z,4.90
2022-12-08T14:56:41.832Z,5.13
2022-12-08T14:59:30.180Z,5.37
2022-12-08T15:02:19.659Z,5.63
2022-12-08T15:04:56.608Z,4.97
2022-12-08T15:07:27.671Z,5.33
2022-12-08T15:10:17.771Z,6.30
2022-12-08T15:13:05.395Z,6.47
2022-12-08T15:15:46.062Z,7.20
2022-12-08T15:18:17.306Z,6.33
2022-12-08T15:20:51.448Z,7.17
2022-12-08T15:23:26.787Z,7.53
2022-12-08T15:25:55.420Z,6.67
2022-12-08T15:28:29.501Z,6.03
2022-12-08T15:30:57.571Z,5.73
2022-12-08T15:33:24.434Z,6.40
2022-12-08T15:35:51.717Z,6.50
2022-12-08T15:38:28.634Z,8.00
2022-12-08T15:40:57.406Z,8.97
2022-12-08T15:43:24.480Z,8.37
2022-12-08T15:45:59.138Z,8.83
2022-12-08T15:48:29.239Z,7.60
2022-12-08T15:50:56.872Z,6.50
2022-12-08T15:53:23.644Z,6.43
2022-12-08T15:56:19.052Z,6.63
2022-12-08T15:58:55.084Z,6.60
2022-12-08T16:01:23.198Z,7.23
2022-12-08T16:09:28.589Z,6.77
2022-12-08T16:12:14.538Z,7.03
2022-12-08T16:17:31.594Z,7.50
2022-12-08T16:19:59.378Z,7.63
2022-12-08T16:22:56.335Z,7.83
2022-12-08T16:25:19.403Z,9.30
2022-12-08T16:28:23.185Z,9.03
2022-12-08T16:30:36.315Z,9.30
2022-12-08T16:33:03.035Z,7.60
2022-12-08T16:35:30.414Z,8.37
2022-12-08T16:37:57.616Z,8.90
2022-12-08T16:40:24.576Z,8.20
2022-12-08T16:42:51.562Z,9.20
2022-12-08T16:45:25.873Z,10.23
2022-12-08T16:47:57.202Z,11.50
2022-12-08T16:50:26.885Z,11.40
2022-12-08T16:53:05.128Z,11.83
2022-12-08T16:55:32.944Z,8.77
2022-12-08T16:58:00.047Z,7.57
2022-12-08T17:00:28.957Z,7.60
2022-12-08T17:02:55.862Z,7.33
2022-12-08T17:05:24.876Z,9.57
2022-12-08T17:07:53.793Z,7.70
2022-12-08T17:10:23.592Z,7.43
2022-12-08T17:12:50.655Z,7.40
2022-12-08T17:15:20.068Z,7.37
2022-12-08T17:17:46.951Z,7.27
2022-12-08T17:20:17.156Z,7.70
2022-12-08T17:22:44.961Z,9.07
2022-12-08T17:25:11.925Z,8.90
2022-12-08T17:27:39.485Z,8.03
2022-12-08T17:30:09.206Z,6.73
2022-12-08T17:32:37.942Z,6.47
2022-12-08T17:35:05.720Z,8.10
2022-12-08T17:37:32.615Z,14.40
2022-12-08T17:40:00.233Z,14.30
2022-12-08T17:42:27.481Z,12.70
2022-12-08T17:44:54.689Z,11.93
2022-12-08T17:47:22.079Z,13.17
2022-12-08T17:49:48.843Z,11.83
2022-12-08T17:52:15.698Z,9.17
2022-12-08T17:54:42.432Z,14.53
2022-12-08T17:57:09.240Z,11.93
2022-12-08T17:59:35.968Z,11.30
2022-12-08T18:02:04.414Z,13.30
2022-12-08T18:04:31.539Z,11.07
2022-12-08T18:07:01.215Z,10.97
2022-12-08T18:09:30.380Z,9.93
2022-12-08T18:11:57.226Z,10.70
2022-12-08T18:14:24.012Z,13.27
2022-12-08T18:16:50.896Z,12.07
2022-12-08T18:19:17.703Z,11.50
2022-12-08T18:21:44.553Z,11.97
2022-12-08T18:24:22.158Z,10.90
2022-12-08T18:26:50.644Z,11.50
2022-12-08T18:29:17.480Z,12.10
2022-12-08T18:31:44.247Z,12.50
2022-12-08T18:34:11.801Z,12.37
2022-12-08T18:36:38.511Z,12.37
2022-12-08T18:39:10.431Z,11.30
2022-12-08T18:41:37.609Z,11.57
2022-12-08T18:44:04.623Z,10.33
2022-12-08T18:46:31.436Z,11.30
2022-12-08T18:48:59.302Z,12.93
2022-12-08T18:51:26.152Z,12.83
2022-12-08T18:53:53.322Z,12.17
2022-12-08T18:56:22.613Z,12.33
2022-12-08T18:58:49.381Z,13.30
2022-12-08T19:01:16.653Z,13.23
2022-12-08T19:04:04.775Z,14.33
2022-12-08T19:06:30.618Z,13.07
2022-12-08T19:08:57.434Z,11.83
2022-12-08T19:11:27.374Z,11.53
2022-12-08T19:13:55.066Z,11.43
2022-12-08T19:16:22.974Z,12.93
2022-12-08T19:18:49.869Z,12.83
2022-12-08T19:21:16.809Z,12.53
2022-12-08T19:23:43.522Z,10.90
2022-12-08T19:26:12.131Z,12.90
2022-12-08T19:28:40.932Z,13.90
2022-12-08T19:31:09.326Z,14.80
2022-12-08T19:33:37.560Z,13.93
2022-12-08T19:36:10.884Z,14.40
2022-12-08T19:38:56.398Z,13.23
2022-12-08T19:41:42.429Z,14.00
2022-12-08T19:44:42.942Z,15.07
2022-12-08T19:47:09.777Z,14.77
2022-12-08T19:49:36.758Z,14.87
2022-12-08T19:52:04.499Z,14.57
2022-12-08T19:54:31.313Z,14.60
2022-12-08T19:56:58.054Z,15.00
2022-12-08T19:59:29.946Z,16.17
2022-12-08T20:01:58.076Z,15.77
2022-12-08T20:04:26.481Z,16.13
2022-12-08T20:06:55.778Z,16.57
2022-12-08T20:09:23.892Z,16.57
2022-12-08T20:11:51.244Z,17.13
2022-12-08T20:14:18.370Z,17.13
2022-12-08T20:16:45.179Z,16.50
2022-12-08T20:19:12.172Z,17.37
2022-12-08T20:21:39.956Z,18.30
2022-12-08T20:24:07.499Z,19.03
2022-12-08T20:26:34.298Z,16.63
2022-12-08T20:29:01.079Z,18.10
2022-12-08T20:31:29.543Z,17.43
2022-12-08T20:33:56.416Z,16.70
2022-12-08T20:36:23.511Z,17.33
2022-12-08T20:38:52.166Z,19.83
2022-12-08T20:41:20.630Z,20.37
2022-12-08T20:43:47.924Z,17.43
2022-12-08T20:46:17.628Z,17.33
2022-12-08T20:48:44.734Z,16.87
2022-12-08T20:51:19.437Z,19.93
2022-12-08T20:53:47.546Z,18.13
2022-12-08T20:56:19.990Z,17.97
2022-12-08T20:58:47.654Z,15.43
2022-12-08T21:01:16.661Z,15.13
2022-12-08T21:03:44.863Z,16.03
2022-12-08T21:06:12.784Z,16.40
2022-12-08T21:08:40.329Z,15.20
2022-12-08T21:11:09.436Z,15.10
2022-12-08T21:13:39.810Z,17.23
2022-12-08T21:16:09.263Z,16.40
2022-12-08T21:18:39.651Z,15.93
2022-12-08T21:21:13.038Z,17.17
2022-12-08T21:23:40.890Z,17.57
2022-12-08T21:26:17.862Z,17.47
2022-12-08T21:28:46.310Z,15.73
2022-12-08T21:31:16.402Z,16.40
2022-12-08T21:33:43.423Z,15.90
2022-12-08T21:36:16.789Z,16.57
2022-12-08T21:38:44.612Z,15.53
2022-12-08T21:41:13.884Z,17.30
2022-12-08T21:43:41.163Z,17.13
2022-12-08T21:46:15.383Z,16.60
2022-12-08T21:48:42.350Z,16.63
2022-12-08T21:51:09.584Z,16.33
2022-12-08T21:53:36.478Z,16.43
2022-12-08T21:56:08.611Z,17.53
2022-12-08T21:58:36.006Z,17.60
2022-12-08T22:01:12.553Z,16.90
2022-12-08T22:03:40.599Z,17.70
2022-12-08T22:06:09.475Z,16.90
2022-12-08T22:08:36.852Z,18.10
2022-12-08T22:11:04.554Z,16.83
2022-12-08T22:13:33.948Z,17.73
2022-12-08T22:16:02.877Z,16.43
2022-12-08T22:18:30.007Z,17.03
2022-12-08T22:20:57.174Z,16.57
2022-12-08T22:23:24.644Z,17.07
2022-12-08T22:26:02.124Z,16.80
2022-12-08T22:28:33.886Z,15.77
2022-12-08T22:31:01.148Z,16.20
2022-12-08T22:33:30.992Z,17.57
2022-12-08T22:36:03.403Z,16.80
2022-12-08T22:38:33.980Z,16.87
2022-12-08T22:41:00.987Z,15.13
2022-12-08T22:43:28.969Z,15.33
2022-12-08T22:45:55.811Z,16.33
2022-12-08T22:48:22.545Z,17.00
2022-12-08T22:50:49.242Z,17.97
2022-12-08T22:53:16.045Z,19.23
2022-12-08T22:55:44.217Z,20.27
2022-12-08T22:58:12.333Z,17.10
2022-12-08T23:00:40.087Z,16.23
2022-12-08T23:03:07.201Z,15.80
2022-12-08T23:05:36.419Z,16.37
2022-12-08T23:08:05.169Z,17.67
2022-12-08T23:10:33.608Z,16.47
2022-12-08T23:13:03.799Z,17.93
2022-12-08T23:15:31.125Z,17.17
2022-12-08T23:17:58.140Z,18.83
2022-12-08T23:20:25.268Z,18.57
2022-12-08T23:22:52.556Z,16.80
2022-12-08T23:25:19.521Z,17.30
2022-12-08T23:27:46.751Z,16.77
2022-12-08T23:30:14.510Z,18.07
2022-12-08T23:32:41.607Z,17.87
2022-12-08T23:35:09.015Z,17.00
2022-12-08T23:37:36.091Z,16.73
2022-12-08T23:40:04.016Z,17.73
2022-12-08T23:42:31.352Z,15.10
2022-12-08T23:44:58.401Z,17.33
2022-12-08T23:47:25.425Z,17.03
2022-12-08T23:49:52.194Z,17.80
2022-12-08T23:52:19.218Z,16.03
2022-12-08T23:54:46.108Z,17.30
2022-12-08T23:57:12.878Z,18.37
2022-12-08T23:59:39.624Z,16.90
